sensor_id;sensor_type;location;lat;lon;timestamp;temperature;humidity
30851;DHT22;17567;48.382;9.102;2023-11-19T00:04:51;9.30;99.90
30851;DHT22;17567;48.382;9.102;2023-11-19T00:09:53;9.50;99.90
30851;DHT22;17567;48.382;9.102;2023-11-19T00:19:56;9.70;99.90
30851;DHT22;17567;48.382;9.102;2023-11-19T00:24:57;9.70;99.90
30851;DHT22;17567;48.382;9.102;2023-11-19T00:29:57;9.70;99.90
30851;DHT22;17567;48.382;9.102;2023-11-19T00:34:58;9.80;99.90
30851;DHT22;17567;48.382;9.102;2023-11-19T00:39:59;9.70;99.90
30851;DHT22;17567;48.382;9.102;2023-11-19T00:44:59;9.70;99.90
30851;DHT22;17567;48.382;9.102;2023-11-19T00:50:02;9.80;99.90
30851;DHT22;17567;48.382;9.102;2023-11-19T00:55:04;9.80;99.90
30851;DHT22;17567;48.382;9.102;2023-11-19T01:00:06;9.80;99.90
30851;DHT22;17567;48.382;9.102;2023-11-19T01:05:14;9.80;99.90
30851;DHT22;17567;48.382;9.102;2023-11-19T01:10:15;9.80;99.90
30851;DHT22;17567;48.382;9.102;2023-11-19T01:15:19;9.80;99.90
30851;DHT22;17567;48.382;9.102;2023-11-19T01:20:19;9.70;99.90
30851;DHT22;17567;48.382;9.102;2023-11-19T01:25:20;9.80;99.90
30851;DHT22;17567;48.382;9.102;2023-11-19T01:30:21;9.90;99.90
30851;DHT22;17567;48.382;9.102;2023-11-19T01:35:21;9.90;99.90
30851;DHT22;17567;48.382;9.102;2023-11-19T01:40:23;9.90;99.90
30851;DHT22;17567;48.382;9.102;2023-11-19T01:45:29;9.90;99.90
30851;DHT22;17567;48.382;9.102;2023-11-19T01:50:32;10.20;99.90
30851;DHT22;17567;48.382;9.102;2023-11-19T01:55:33;10.20;99.90
30851;DHT22;17567;48.382;9.102;2023-11-19T02:00:34;10.20;99.90
30851;DHT22;17567;48.382;9.102;2023-11-19T02:05:35;10.20;99.90
30851;DHT22;17567;48.382;9.102;2023-11-19T02:10:37;10.30;99.90
30851;DHT22;17567;48.382;9.102;2023-11-19T02:15:37;10.30;99.90
30851;DHT22;17567;48.382;9.102;2023-11-19T02:20:38;10.30;99.90
30851;DHT22;17567;48.382;9.102;2023-11-19T02:25:40;10.20;99.90
30851;DHT22;17567;48.382;9.102;2023-11-19T02:30:41;10.30;99.90
30851;DHT22;17567;48.382;9.102;2023-11-19T02:35:41;10.20;99.90
30851;DHT22;17567;48.382;9.102;2023-11-19T02:40:42;10.20;99.90
30851;DHT22;17567;48.382;9.102;2023-11-19T02:45:43;10.20;99.90
30851;DHT22;17567;48.382;9.102;2023-11-19T02:50:46;10.30;99.90
30851;DHT22;17567;48.382;9.102;2023-11-19T02:55:48;10.40;99.90
30851;DHT22;17567;48.382;9.102;2023-11-19T03:00:51;10.30;99.90
30851;DHT22;17567;48.382;9.102;2023-11-19T03:05:57;10.30;99.90
30851;DHT22;17567;48.382;9.102;2023-11-19T03:10:58;10.40;99.90
30851;DHT22;17567;48.382;9.102;2023-11-19T03:15:59;10.30;99.90
30851;DHT22;17567;48.382;9.102;2023-11-19T03:21:00;10.30;99.90
30851;DHT22;17567;48.382;9.102;2023-11-19T03:26:01;10.50;99.90
30851;DHT22;17567;48.382;9.102;2023-11-19T03:31:06;10.40;99.90
30851;DHT22;17567;48.382;9.102;2023-11-19T03:36:08;10.50;99.90
30851;DHT22;17567;48.382;9.102;2023-11-19T03:41:13;10.40;99.90
30851;DHT22;17567;48.382;9.102;2023-11-19T03:46:18;10.40;99.90
30851;DHT22;17567;48.382;9.102;2023-11-19T03:51:19;10.40;99.90
30851;DHT22;17567;48.382;9.102;2023-11-19T03:56:19;10.40;99.90
30851;DHT22;17567;48.382;9.102;2023-11-19T04:01:21;10.30;99.90
30851;DHT22;17567;48.382;9.102;2023-11-19T04:06:22;10.40;99.90
30851;DHT22;17567;48.382;9.102;2023-11-19T04:11:23;10.40;99.90
30851;DHT22;17567;48.382;9.102;2023-11-19T04:16:27;10.50;99.90
30851;DHT22;17567;48.382;9.102;2023-11-19T04:21:31;10.50;99.90
30851;DHT22;17567;48.382;9.102;2023-11-19T04:26:31;10.40;99.90
30851;DHT22;17567;48.382;9.102;2023-11-19T04:31:32;10.40;99.90
30851;DHT22;17567;48.382;9.102;2023-11-19T04:36:33;10.40;99.90
30851;DHT22;17567;48.382;9.102;2023-11-19T04:41:34;10.30;99.90
30851;DHT22;17567;48.382;9.102;2023-11-19T04:46:34;10.30;99.90
30851;DHT22;17567;48.382;9.102;2023-11-19T04:51:41;10.30;99.90
30851;DHT22;17567;48.382;9.102;2023-11-19T04:56:47;10.50;99.90
30851;DHT22;17567;48.382;9.102;2023-11-19T05:01:49;10.60;99.90
30851;DHT22;17567;48.382;9.102;2023-11-19T05:06:49;10.50;99.90
30851;DHT22;17567;48.382;9.102;2023-11-19T05:11:50;10.60;99.90
30851;DHT22;17567;48.382;9.102;2023-11-19T05:16:51;10.60;99.90
30851;DHT22;17567;48.382;9.102;2023-11-19T05:21:51;10.70;99.90
30851;DHT22;17567;48.382;9.102;2023-11-19T05:26:52;10.70;99.90
30851;DHT22;17567;48.382;9.102;2023-11-19T05:31:53;10.80;99.90
30851;DHT22;17567;48.382;9.102;2023-11-19T05:36:55;10.80;99.90
30851;DHT22;17567;48.382;9.102;2023-11-19T05:41:56;10.80;99.90
30851;DHT22;17567;48.382;9.102;2023-11-19T05:46:56;10.60;99.90
30851;DHT22;17567;48.382;9.102;2023-11-19T05:51:57;10.60;99.90
30851;DHT22;17567;48.382;9.102;2023-11-19T05:56:58;10.60;99.90
30851;DHT22;17567;48.382;9.102;2023-11-19T06:01:58;10.50;99.90
30851;DHT22;17567;48.382;9.102;2023-11-19T06:06:59;10.40;99.90
30851;DHT22;17567;48.382;9.102;2023-11-19T06:11:59;10.60;99.90
30851;DHT22;17567;48.382;9.102;2023-11-19T06:17:02;10.50;99.90
30851;DHT22;17567;48.382;9.102;2023-11-19T06:22:05;10.60;99.90
30851;DHT22;17567;48.382;9.102;2023-11-19T06:27:05;10.70;99.90
30851;DHT22;17567;48.382;9.102;2023-11-19T06:32:06;10.80;99.90
30851;DHT22;17567;48.382;9.102;2023-11-19T06:37:08;10.70;99.90
30851;DHT22;17567;48.382;9.102;2023-11-19T06:42:09;10.60;99.90
30851;DHT22;17567;48.382;9.102;2023-11-19T06:47:10;10.60;99.90
30851;DHT22;17567;48.382;9.102;2023-11-19T06:52:10;10.60;99.90
30851;DHT22;17567;48.382;9.102;2023-11-19T06:57:11;10.60;99.90
30851;DHT22;17567;48.382;9.102;2023-11-19T07:02:12;10.60;99.90
30851;DHT22;17567;48.382;9.102;2023-11-19T07:07:12;10.50;99.90
30851;DHT22;17567;48.382;9.102;2023-11-19T07:12:15;10.50;99.90
30851;DHT22;17567;48.382;9.102;2023-11-19T07:17:15;10.60;99.90
30851;DHT22;17567;48.382;9.102;2023-11-19T07:22:17;10.70;99.90
30851;DHT22;17567;48.382;9.102;2023-11-19T07:27:18;10.70;99.90
30851;DHT22;17567;48.382;9.102;2023-11-19T07:32:19;10.70;99.90
30851;DHT22;17567;48.382;9.102;2023-11-19T07:37:20;10.90;99.90
30851;DHT22;17567;48.382;9.102;2023-11-19T07:42:20;10.90;99.90
30851;DHT22;17567;48.382;9.102;2023-11-19T07:47:21;10.80;99.90
30851;DHT22;17567;48.382;9.102;2023-11-19T07:52:23;10.90;99.90
30851;DHT22;17567;48.382;9.102;2023-11-19T07:57:24;11.00;99.90
30851;DHT22;17567;48.382;9.102;2023-11-19T08:02:27;11.00;99.90
30851;DHT22;17567;48.382;9.102;2023-11-19T08:07:28;11.00;99.90
30851;DHT22;17567;48.382;9.102;2023-11-19T08:12:29;11.00;99.90
30851;DHT22;17567;48.382;9.102;2023-11-19T08:17:29;10.90;99.90
30851;DHT22;17567;48.382;9.102;2023-11-19T08:22:30;10.90;99.90
30851;DHT22;17567;48.382;9.102;2023-11-19T08:27:31;10.90;99.90
30851;DHT22;17567;48.382;9.102;2023-11-19T08:32:32;10.90;99.90
30851;DHT22;17567;48.382;9.102;2023-11-19T08:37:33;10.90;99.90
30851;DHT22;17567;48.382;9.102;2023-11-19T08:42:37;10.90;99.90
30851;DHT22;17567;48.382;9.102;2023-11-19T08:47:39;10.90;99.90
30851;DHT22;17567;48.382;9.102;2023-11-19T08:52:40;11.00;99.90
30851;DHT22;17567;48.382;9.102;2023-11-19T08:57:41;11.10;99.90
30851;DHT22;17567;48.382;9.102;2023-11-19T09:02:42;11.00;99.90
30851;DHT22;17567;48.382;9.102;2023-11-19T09:07:43;11.20;99.90
30851;DHT22;17567;48.382;9.102;2023-11-19T09:12:44;11.30;99.90
30851;DHT22;17567;48.382;9.102;2023-11-19T09:27:47;11.80;99.90
30851;DHT22;17567;48.382;9.102;2023-11-19T09:32:47;11.70;99.90
30851;DHT22;17567;48.382;9.102;2023-11-19T09:37:48;11.80;99.90
30851;DHT22;17567;48.382;9.102;2023-11-19T09:52:53;12.20;99.90
30851;DHT22;17567;48.382;9.102;2023-11-19T09:57:53;12.20;99.90
30851;DHT22;17567;48.382;9.102;2023-11-19T10:02:54;12.20;99.90
30851;DHT22;17567;48.382;9.102;2023-11-19T10:07:57;12.20;99.90
30851;DHT22;17567;48.382;9.102;2023-11-19T10:12:58;12.30;99.90
30851;DHT22;17567;48.382;9.102;2023-11-19T10:18:00;12.40;99.90
30851;DHT22;17567;48.382;9.102;2023-11-19T10:23:01;12.50;99.90
30851;DHT22;17567;48.382;9.102;2023-11-19T10:28:02;12.60;99.90
30851;DHT22;17567;48.382;9.102;2023-11-19T10:33:10;12.90;99.90
30851;DHT22;17567;48.382;9.102;2023-11-19T10:38:16;13.10;99.90
30851;DHT22;17567;48.382;9.102;2023-11-19T10:43:17;13.10;99.90
30851;DHT22;17567;48.382;9.102;2023-11-19T10:48:18;13.10;99.90
30851;DHT22;17567;48.382;9.102;2023-11-19T10:53:21;13.00;99.90
30851;DHT22;17567;48.382;9.102;2023-11-19T10:58:24;13.00;99.90
30851;DHT22;17567;48.382;9.102;2023-11-19T11:03:25;13.00;99.90
30851;DHT22;17567;48.382;9.102;2023-11-19T11:08:30;12.90;99.90
30851;DHT22;17567;48.382;9.102;2023-11-19T11:13:31;12.90;99.90
30851;DHT22;17567;48.382;9.102;2023-11-19T11:18:32;12.70;99.90
30851;DHT22;17567;48.382;9.102;2023-11-19T11:24:07;12.80;99.90
30851;DHT22;17567;48.382;9.102;2023-11-19T11:29:24;12.70;99.90
30851;DHT22;17567;48.382;9.102;2023-11-19T11:34:43;12.60;99.90
30851;DHT22;17567;48.382;9.102;2023-11-19T11:39:47;12.70;99.90
30851;DHT22;17567;48.382;9.102;2023-11-19T11:50:16;12.70;99.90
30851;DHT22;17567;48.382;9.102;2023-11-19T11:55:18;12.70;99.90
30851;DHT22;17567;48.382;9.102;2023-11-19T14:01:49;15.70;99.90
30851;DHT22;17567;48.382;9.102;2023-11-19T14:06:50;15.80;99.90
30851;DHT22;17567;48.382;9.102;2023-11-19T14:11:51;16.10;99.90
30851;DHT22;17567;48.382;9.102;2023-11-19T14:16:51;16.10;99.90
30851;DHT22;17567;48.382;9.102;2023-11-19T14:21:52;15.80;99.90
30851;DHT22;17567;48.382;9.102;2023-11-19T14:26:53;15.60;99.90
30851;DHT22;17567;48.382;9.102;2023-11-19T14:36:55;14.20;99.90
30851;DHT22;17567;48.382;9.102;2023-11-19T14:41:55;14.10;99.90
30851;DHT22;17567;48.382;9.102;2023-11-19T14:46:58;14.10;99.90
30851;DHT22;17567;48.382;9.102;2023-11-19T14:51:59;14.00;99.90
30851;DHT22;17567;48.382;9.102;2023-11-19T14:57:00;13.80;99.90
30851;DHT22;17567;48.382;9.102;2023-11-19T15:02:00;13.80;99.90
30851;DHT22;17567;48.382;9.102;2023-11-19T15:27:11;12.80;99.90
30851;DHT22;17567;48.382;9.102;2023-11-19T15:32:12;12.70;99.90
